createdAt,value
2023-02-14T00:02:05.889Z,43.55
2023-02-14T00:04:54.737Z,43.64
2023-02-14T00:07:37.818Z,43.40
2023-02-14T00:12:55.253Z,43.55
2023-02-14T00:15:34.016Z,43.39
2023-02-14T00:18:00.914Z,43.54
2023-02-14T00:20:31.382Z,43.56
2023-02-14T00:22:58.233Z,43.20
2023-02-14T00:25:37.034Z,43.41
2023-02-14T00:28:12.689Z,43.59
2023-02-14T00:30:39.666Z,43.47
2023-02-14T00:33:23.508Z,43.17
2023-02-14T00:36:12.972Z,43.72
2023-02-14T00:41:42.584Z,43.43
2023-02-14T00:44:16.969Z,43.69
2023-02-14T00:46:46.606Z,43.62
2023-02-14T00:49:13.299Z,43.37
2023-02-14T00:51:45.767Z,43.45
2023-02-14T00:54:23.949Z,43.51
2023-02-14T00:59:39.584Z,43.59
2023-02-14T01:02:14.538Z,43.57
2023-02-14T01:04:51.235Z,43.76
2023-02-14T01:07:28.060Z,43.43
2023-02-14T01:10:01.428Z,43.72
2023-02-14T01:12:43.259Z,43.66
2023-02-14T01:15:13.289Z,43.67
2023-02-14T01:17:53.876Z,43.93
2023-02-14T01:20:51.495Z,43.75
2023-02-14T01:32:09.554Z,43.70
2023-02-14T01:34:48.254Z,43.47
2023-02-14T01:37:30.206Z,43.81
2023-02-14T01:40:05.392Z,43.55
2023-02-14T01:42:49.759Z,43.53
2023-02-14T01:45:32.577Z,43.31
2023-02-14T01:48:20.155Z,43.60
2023-02-14T01:50:50.799Z,43.53
2023-02-14T01:53:24.082Z,43.45
2023-02-14T01:55:56.655Z,43.62
2023-02-14T01:58:36.555Z,43.57
2023-02-14T02:01:17.932Z,43.58
2023-02-14T02:03:56.005Z,43.56
2023-02-14T02:06:48.491Z,43.55
2023-02-14T02:09:40.599Z,43.56
2023-02-14T02:12:20.789Z,43.58
2023-02-14T02:14:47.414Z,43.59
2023-02-14T02:17:45.359Z,43.67
2023-02-14T02:20:41.621Z,43.51
2023-02-14T02:23:37.545Z,43.53
2023-02-14T02:30:04.800Z,43.57
2023-02-14T02:32:53.370Z,43.75
2023-02-14T02:35:50.724Z,43.51
2023-02-14T02:38:45.190Z,43.65
2023-02-14T02:41:38.070Z,43.54
2023-02-14T02:44:24.120Z,43.59
2023-02-14T02:47:03.011Z,43.66
2023-02-14T02:50:09.644Z,43.86
2023-02-14T02:53:10.036Z,43.65
2023-02-14T02:56:06.060Z,43.31
2023-02-14T02:59:21.002Z,43.50
2023-02-14T03:02:13.192Z,43.68
2023-02-14T03:04:55.757Z,43.90
2023-02-14T03:07:40.724Z,43.61
2023-02-14T03:10:32.881Z,43.48
2023-02-14T03:16:33.097Z,43.78
2023-02-14T03:19:49.463Z,43.53
2023-02-14T03:22:28.272Z,43.65
2023-02-14T03:24:57.487Z,43.57
2023-02-14T03:27:32.959Z,43.57
2023-02-14T03:30:21.725Z,43.36
2023-02-14T03:33:12.204Z,43.54
2023-02-14T03:36:02.462Z,43.47
2023-02-14T03:38:47.932Z,43.65
2023-02-14T03:41:25.623Z,43.46
2023-02-14T03:43:56.517Z,43.44
2023-02-14T03:46:32.054Z,43.58
2023-02-14T03:49:03.905Z,43.45
2023-02-14T03:54:17.472Z,43.63
2023-02-14T03:56:50.455Z,43.59
2023-02-14T03:59:19.783Z,43.63
2023-02-14T04:01:57.312Z,43.63
2023-02-14T04:04:27.566Z,43.45
2023-02-14T04:06:56.823Z,43.56
2023-02-14T04:09:28.781Z,43.68
2023-02-14T04:12:03.690Z,43.45
2023-02-14T04:14:34.837Z,43.54
2023-02-14T04:17:36.807Z,43.24
2023-02-14T04:20:05.623Z,43.59
2023-02-14T04:22:35.485Z,43.42
2023-02-14T04:25:02.501Z,43.68
2023-02-14T04:27:31.872Z,43.62
2023-02-14T04:33:28.348Z,43.74
2023-02-14T04:36:00.603Z,43.55
2023-02-14T04:38:30.680Z,43.59
2023-02-14T04:41:00.751Z,43.68
2023-02-14T04:43:48.017Z,43.61
2023-02-14T04:46:14.655Z,43.59
2023-02-14T04:48:49.277Z,43.42
2023-02-14T04:51:24.547Z,43.52
2023-02-14T04:53:52.319Z,43.52
2023-02-14T04:56:32.795Z,43.20
2023-02-14T04:59:18.728Z,43.29
2023-02-14T05:02:00.346Z,43.33
2023-02-14T05:04:27.116Z,43.26
2023-02-14T05:06:56.496Z,43.33
2023-02-14T05:09:23.129Z,43.30
2023-02-14T05:11:57.421Z,43.42
2023-02-14T05:14:37.403Z,43.28
2023-02-14T05:17:04.516Z,43.08
2023-02-14T05:49:12.507Z,44.58
2023-02-14T05:51:39.106Z,43.49
2023-02-14T05:54:06.083Z,43.87
2023-02-14T05:56:32.586Z,43.73
2023-02-14T05:58:59.324Z,43.87
2023-02-14T06:01:25.918Z,43.62
2023-02-14T06:03:52.553Z,43.64
2023-02-14T06:44:06.501Z,39.62
2023-02-14T06:46:33.138Z,38.81
2023-02-14T06:48:59.749Z,38.68
2023-02-14T06:51:26.343Z,38.66
2023-02-14T06:53:53.329Z,38.96
2023-02-14T06:56:19.936Z,39.22
2023-02-14T06:58:46.637Z,39.70
2023-02-14T07:01:13.470Z,39.60
2023-02-14T07:03:40.042Z,40.67
2023-02-14T07:06:06.715Z,40.46
2023-02-14T07:08:33.289Z,40.42
2023-02-14T07:11:00.167Z,40.76
2023-02-14T07:16:02.162Z,41.06
2023-02-14T07:18:30.131Z,41.15
2023-02-14T07:20:56.905Z,41.31
2023-02-14T07:23:23.505Z,41.67
2023-02-14T07:25:50.102Z,41.30
2023-02-14T07:28:16.682Z,41.91
2023-02-14T07:30:43.378Z,41.86
2023-02-14T07:33:09.994Z,41.16
2023-02-14T07:35:36.565Z,41.88
2023-02-14T07:38:03.088Z,41.58
2023-02-14T07:40:30.041Z,41.48
2023-02-14T07:42:57.237Z,41.41
2023-02-14T07:45:23.931Z,41.47
2023-02-14T07:47:51.430Z,41.46
2023-02-14T07:50:18.077Z,41.33
2023-02-14T07:52:45.025Z,41.45
2023-02-14T07:55:11.831Z,41.07
2023-02-14T07:57:38.427Z,39.34
2023-02-14T08:00:06.100Z,37.59
2023-02-14T08:02:32.681Z,36.06
2023-02-14T08:07:41.600Z,37.14
2023-02-14T08:10:08.593Z,37.80
2023-02-14T08:12:53.926Z,37.98
2023-02-14T08:15:39.195Z,38.81
2023-02-14T08:18:05.758Z,38.99
2023-02-14T08:20:32.301Z,39.15
2023-02-14T08:22:58.992Z,39.53
2023-02-14T08:25:25.539Z,39.63
2023-02-14T08:27:52.094Z,39.68
2023-02-14T08:30:18.806Z,39.78
2023-02-14T08:32:45.528Z,39.71
2023-02-14T08:35:12.032Z,39.45
2023-02-14T08:37:38.637Z,39.86
2023-02-14T08:40:05.813Z,40.06
2023-02-14T08:42:32.538Z,39.81
2023-02-14T08:44:59.076Z,38.65
2023-02-14T08:47:25.655Z,37.87
2023-02-14T08:49:52.322Z,38.08
2023-02-14T08:52:18.841Z,38.33
2023-02-14T08:54:45.324Z,39.06
2023-02-14T08:57:11.914Z,39.25
2023-02-14T08:59:38.423Z,39.81
2023-02-14T09:02:04.955Z,39.63
2023-02-14T09:04:31.578Z,39.64
2023-02-14T09:06:58.179Z,39.98
2023-02-14T09:09:24.698Z,40.02
2023-02-14T09:11:51.282Z,39.89
2023-02-14T09:14:20.619Z,39.74
2023-02-14T09:16:47.295Z,39.94
2023-02-14T09:19:13.960Z,40.19
2023-02-14T09:21:40.843Z,40.05
2023-02-14T09:24:07.403Z,40.30
2023-02-14T09:26:36.856Z,40.05
2023-02-14T09:29:03.638Z,40.05
2023-02-14T09:31:30.750Z,40.47
2023-02-14T09:33:57.501Z,40.41
2023-02-14T09:36:24.068Z,40.29
2023-02-14T09:38:50.592Z,40.52
2023-02-14T09:41:33.896Z,40.43
2023-02-14T09:44:18.762Z,40.53
2023-02-14T09:46:52.190Z,40.54
2023-02-14T09:49:29.440Z,40.59
2023-02-14T09:51:56.670Z,40.78
2023-02-14T09:54:25.102Z,40.55
2023-02-14T09:56:58.748Z,40.63
2023-02-14T09:59:36.175Z,40.60
2023-02-14T10:02:27.820Z,41.02
2023-02-14T10:05:17.287Z,40.91
2023-02-14T10:08:12.715Z,40.83
2023-02-14T10:10:43.304Z,40.60
2023-02-14T10:13:47.679Z,40.88
2023-02-14T10:16:47.887Z,40.85
2023-02-14T10:19:21.985Z,40.55
2023-02-14T10:22:03.162Z,40.59
2023-02-14T10:24:49.860Z,40.73
2023-02-14T10:27:43.883Z,40.72
2023-02-14T10:30:17.502Z,40.83
2023-02-14T10:32:54.105Z,41.05
2023-02-14T10:35:52.474Z,40.87
2023-02-14T10:38:33.025Z,40.92
2023-02-14T10:41:33.831Z,40.99
2023-02-14T10:44:13.545Z,40.31
2023-02-14T10:46:51.827Z,39.46
2023-02-14T10:49:34.372Z,39.72
2023-02-14T10:52:08.206Z,39.97
2023-02-14T10:54:39.374Z,40.19
2023-02-14T10:57:26.732Z,40.23
2023-02-14T10:59:59.288Z,40.43
2023-02-14T11:02:39.939Z,40.38
2023-02-14T11:05:06.825Z,40.34
2023-02-14T11:07:33.474Z,40.22
2023-02-14T11:09:59.991Z,40.13
2023-02-14T11:12:40.275Z,40.51
2023-02-14T11:15:14.342Z,40.39
2023-02-14T11:17:42.267Z,40.42
2023-02-14T11:20:30.392Z,40.42
2023-02-14T11:22:57.310Z,40.81
2023-02-14T11:25:31.254Z,40.54
2023-02-14T11:28:08.111Z,40.80
2023-02-14T11:30:35.576Z,40.89
2023-02-14T11:33:03.167Z,40.79
2023-02-14T11:35:35.519Z,40.71
2023-02-14T11:38:03.585Z,40.86
2023-02-14T11:40:34.814Z,40.68
2023-02-14T11:43:19.065Z,40.78
2023-02-14T11:45:46.947Z,40.49
2023-02-14T11:48:22.043Z,40.55
2023-02-14T11:50:54.380Z,40.78
2023-02-14T11:53:23.393Z,40.76
2023-02-14T11:55:55.914Z,40.60
2023-02-14T11:58:33.056Z,41.09
2023-02-14T12:01:00.394Z,40.80
2023-02-14T12:03:28.331Z,40.92
2023-02-14T12:06:00.368Z,40.70
2023-02-14T12:08:28.856Z,40.69
2023-02-14T12:11:04.164Z,40.59
2023-02-14T12:13:30.824Z,40.78
2023-02-14T12:15:58.418Z,40.74
2023-02-14T12:18:51.532Z,40.69
2023-02-14T12:21:33.372Z,40.88
2023-02-14T12:24:15.591Z,40.78
2023-02-14T12:26:47.765Z,40.87
2023-02-14T12:29:20.180Z,40.79
2023-02-14T12:31:47.595Z,40.71
2023-02-14T12:34:14.234Z,41.14
2023-02-14T12:36:47.850Z,40.89
2023-02-14T12:39:32.570Z,40.67
2023-02-14T12:42:43.982Z,40.69
2023-02-14T12:45:28.646Z,40.61
2023-02-14T12:48:16.859Z,40.67
2023-02-14T12:51:02.409Z,40.55
2023-02-14T12:53:29.154Z,40.59
2023-02-14T12:56:00.623Z,40.56
2023-02-14T12:58:40.563Z,40.54
2023-02-14T13:01:10.090Z,40.48
2023-02-14T13:04:14.571Z,40.53
2023-02-14T13:07:09.457Z,40.54
2023-02-14T13:09:48.942Z,40.62
2023-02-14T13:12:26.832Z,40.36
2023-02-14T13:15:15.831Z,40.52
2023-02-14T13:17:45.064Z,40.43
2023-02-14T13:20:31.052Z,40.59
2023-02-14T13:22:57.779Z,40.39
2023-02-14T14:30:30.837Z,40.82
2023-02-14T14:33:23.623Z,40.96
2023-02-14T14:35:58.258Z,40.96
2023-02-14T14:38:29.326Z,41.06
2023-02-14T14:40:55.971Z,41.39
2023-02-14T14:43:34.480Z,41.12
2023-02-14T14:46:05.103Z,41.07
2023-02-14T14:51:24.447Z,41.33
2023-02-14T14:54:04.266Z,41.21
2023-02-14T15:01:47.963Z,41.53
2023-02-14T15:15:02.380Z,41.97
2023-02-14T15:17:29.820Z,41.74
2023-02-14T15:20:04.438Z,42.21
2023-02-14T15:22:47.979Z,42.12
2023-02-14T15:25:21.403Z,41.98
2023-02-14T15:27:48.021Z,42.22
2023-02-14T15:30:23.250Z,42.28
2023-02-14T15:32:50.367Z,42.14
2023-02-14T15:35:18.631Z,42.29
2023-02-14T15:37:45.552Z,41.74
2023-02-14T15:40:25.749Z,42.10
2023-02-14T15:42:57.358Z,41.62
2023-02-14T15:45:30.756Z,42.13
2023-02-14T15:48:05.604Z,42.25
2023-02-14T15:50:36.154Z,42.09
2023-02-14T15:53:08.061Z,42.32
2023-02-14T15:55:34.818Z,42.35
2023-02-14T15:58:09.052Z,42.22
2023-02-14T16:00:35.819Z,42.34
2023-02-14T16:03:07.779Z,42.28
2023-02-14T16:05:34.396Z,42.77
2023-02-14T16:08:24.061Z,42.22
2023-02-14T16:11:03.904Z,42.07
2023-02-14T16:13:35.166Z,42.38
2023-02-14T16:16:06.704Z,42.37
2023-02-14T16:18:41.013Z,42.35
2023-02-14T16:21:33.885Z,42.52
2023-02-14T16:24:07.003Z,42.44
2023-02-14T16:26:35.224Z,42.41
2023-02-14T16:29:09.330Z,42.72
2023-02-14T17:38:59.101Z,42.73
2023-02-14T17:57:55.857Z,42.48
2023-02-14T18:08:46.384Z,42.50
2023-02-14T18:11:13.854Z,42.72
2023-02-14T18:13:46.436Z,42.86
2023-02-14T18:16:16.008Z,42.80
2023-02-14T18:27:22.630Z,42.77
2023-02-14T18:29:49.598Z,42.54
2023-02-14T18:32:16.255Z,42.86
2023-02-14T18:34:43.016Z,42.67
2023-02-14T18:37:12.946Z,42.61
2023-02-14T18:39:39.795Z,43.06
2023-02-14T18:42:06.962Z,42.56
2023-02-14T18:44:33.723Z,43.00
2023-02-14T18:47:01.635Z,42.54
2023-02-14T18:49:34.221Z,42.99
2023-02-14T18:52:39.416Z,42.84
2023-02-14T18:55:06.810Z,42.51
